Heinz Schepers — V2OM7 — position and weather

sailwx.info

Track history (hours):
 
Tides and Currents Weather Stations Pressure Air Temp Water Temp Dewpoint Dewpoint Depression Visibility Wind Speed Wind Dir Waves Ship Positions

Heinz Schepers

Last reported at 2015-May-21 09:32 UTC. Time now 2015-Jul-06 00:55 UTC.
Position N 39°43' E 023°15'.
Warning: this ship's position is 45 days out of date.

Length 101 m; draft 5.3 m.

Type: Cargo ship. MMSI: 304596000.

Date/timePositionNaut miles runAvg speedWind from/ knotsBaromVisibWave heightAir tempDewpointWater temp
2015-May-21 09:32N 39°43' E 023°15'23513.7
2015-May-20 16:25N 37°07' E 027°00'29813.0
2015-May-19 17:32N 34°41' E 032°21'1414.2
2015-May-19 16:33N 34°36' E 032°36'1413.9
2015-May-19 15:33N 34°32' E 032°53'1010.2
2015-May-19 14:33N 34°38' E 033°03'2 2.0
2015-May-19 13:31N 34°39' E 033°01'0 0.0
2015-May-19 12:31N 34°39' E 033°01'0 0.0
2015-May-19 11:31N 34°39' E 033°01'0 0.0
2015-May-19 10:31N 34°39' E 033°01'0 0.0
2015-May-19 09:31N 34°39' E 033°01'0 0.0
2015-May-19 08:31N 34°39' E 033°01'0 0.0
2015-May-19 07:31N 34°39' E 033°01'0 0.0
2015-May-19 06:31N 34°39' E 033°01'0 0.0
2015-May-19 05:31N 34°39' E 033°01'0 0.0
2015-May-19 04:31N 34°39' E 033°01'0 0.3
2015-May-19 03:33N 34°39' E 033°01'5 5.4
2015-May-19 02:33N 34°34' E 033°04'1211.8
2015-May-19 01:33N 34°33' E 032°50'1313.3
2015-May-19 00:33N 34°37' E 032°34'23911.9
2015-May-18 04:33N 36°29' E 028°15'1414.0
2015-May-18 03:33N 36°29' E 027°57'1413.7
2015-May-18 02:33N 36°32' E 027°41'1813.7
2015-May-18 01:14N 36°40' E 027°21'1412.7
2015-May-18 00:08N 36°54' E 027°21'913.4
2015-May-17 23:29N 36°58' E 027°12'1313.4
2015-May-17 22:33N 37°07' E 027°00'1413.8
2015-May-17 21:32N 37°19' E 026°51'2813.6
2015-May-17 19:27N 37°42' E 026°30'2814.0
2015-May-17 17:28N 37°57' E 026°01'  
2015-May-15 02:17N 37°56' E 025°25'1114.4
2015-May-15 01:33N 37°49' E 025°34'1714.4
2015-May-15 00:24N 37°37' E 025°49'1515.1
2015-May-14 23:25N 37°27' E 026°03'1914.9
2015-May-14 22:09N 37°15' E 026°22'1014.6
2015-May-14 21:29N 37°09' E 026°31'1714.8
2015-May-14 20:19N 36°59' E 026°48'1012.6
2015-May-14 19:33N 36°55' E 026°60'1 0.4
2015-May-14 16:11N 36°56' E 027°01'0 0.1
2015-May-14 15:25N 36°56' E 027°00'1311.9
2015-May-14 14:20N 36°56' E 027°17'2211.2
2015-May-14 12:23N 36°37' E 027°29'1113.6
2015-May-14 11:33N 36°32' E 027°42'25714.3
2015-May-13 17:33N 34°39' E 032°26'1414.2
2015-May-13 16:33N 34°35' E 032°42'1413.8
2015-May-13 15:33N 34°32' E 032°58'8 7.8
2015-May-13 14:34N 34°39' E 033°01'0 0.2
2015-May-13 13:31N 34°39' E 033°01'0 0.0
2015-May-13 12:31N 34°39' E 033°01'0 0.0
2015-May-13 11:31N 34°39' E 033°01'0 0.0
2015-May-13 10:31N 34°39' E 033°01'0 0.0
2015-May-13 07:31N 34°39' E 033°01'0 0.0
2015-May-13 06:31N 34°39' E 033°01'0 0.0
2015-May-13 05:31N 34°39' E 033°01'0 0.0
2015-May-13 04:31N 34°39' E 033°01'0 0.0
2015-May-13 03:31N 34°39' E 033°01'3 2.9
2015-May-13 02:32N 34°40' E 033°04'0 0.0
2015-May-13 01:32N 34°40' E 033°04'0 0.0
2015-May-13 00:32N 34°40' E 033°04'0 0.0
2015-May-12 23:32N 34°40' E 033°04'0 0.0
2015-May-12 22:32N 34°40' E 033°04'0 0.0
2015-May-12 21:32N 34°40' E 033°04'0 0.0
2015-May-12 20:32N 34°40' E 033°04'0 0.0
2015-May-12 19:32N 34°41' E 033°04'0 0.0
2015-May-12 18:32N 34°41' E 033°04'1 0.9
2015-May-12 17:33N 34°40' E 033°04'9 9.4
2015-May-12 16:33N 34°32' E 032°58'1212.1
2015-May-12 15:33N 34°34' E 032°44'1212.2
2015-May-12 14:33N 34°38' E 032°30'  
Track history (hours):
 
Tides and Currents Weather Stations Pressure Air Temp Water Temp Dewpoint Dewpoint Depression Visibility Wind Speed Wind Dir Waves Ship Positions

Heinz Schepers

Last reported at 2015-May-21 09:32 UTC. Time now 2015-Jul-06 00:55 UTC.
Position N 39°43' E 023°15'.
Warning: this ship's position is 45 days out of date.

Length 101 m; draft 5.3 m.

Type: Cargo ship. MMSI: 304596000.

Date/timePositionNaut miles runAvg speedWind from/ knotsBaromVisibWave heightAir tempDewpointWater temp
2015-May-21 09:32N 39°43' E 023°15'23513.7
2015-May-20 16:25N 37°07' E 027°00'29813.0
2015-May-19 17:32N 34°41' E 032°21'1414.2
2015-May-19 16:33N 34°36' E 032°36'1413.9
2015-May-19 15:33N 34°32' E 032°53'1010.2
2015-May-19 14:33N 34°38' E 033°03'2 2.0
2015-May-19 13:31N 34°39' E 033°01'0 0.0
2015-May-19 12:31N 34°39' E 033°01'0 0.0
2015-May-19 11:31N 34°39' E 033°01'0 0.0
2015-May-19 10:31N 34°39' E 033°01'0 0.0
2015-May-19 09:31N 34°39' E 033°01'0 0.0
2015-May-19 08:31N 34°39' E 033°01'0 0.0
2015-May-19 07:31N 34°39' E 033°01'0 0.0
2015-May-19 06:31N 34°39' E 033°01'0 0.0
2015-May-19 05:31N 34°39' E 033°01'0 0.0
2015-May-19 04:31N 34°39' E 033°01'0 0.3
2015-May-19 03:33N 34°39' E 033°01'5 5.4
2015-May-19 02:33N 34°34' E 033°04'1211.8
2015-May-19 01:33N 34°33' E 032°50'1313.3
2015-May-19 00:33N 34°37' E 032°34'23911.9
2015-May-18 04:33N 36°29' E 028°15'1414.0
2015-May-18 03:33N 36°29' E 027°57'1413.7
2015-May-18 02:33N 36°32' E 027°41'1813.7
2015-May-18 01:14N 36°40' E 027°21'1412.7
2015-May-18 00:08N 36°54' E 027°21'913.4
2015-May-17 23:29N 36°58' E 027°12'1313.4
2015-May-17 22:33N 37°07' E 027°00'1413.8
2015-May-17 21:32N 37°19' E 026°51'2813.6
2015-May-17 19:27N 37°42' E 026°30'2814.0
2015-May-17 17:28N 37°57' E 026°01'  
2015-May-15 02:17N 37°56' E 025°25'1114.4
2015-May-15 01:33N 37°49' E 025°34'1714.4
2015-May-15 00:24N 37°37' E 025°49'1515.1
2015-May-14 23:25N 37°27' E 026°03'1914.9
2015-May-14 22:09N 37°15' E 026°22'1014.6
2015-May-14 21:29N 37°09' E 026°31'1714.8
2015-May-14 20:19N 36°59' E 026°48'1012.6
2015-May-14 19:33N 36°55' E 026°60'1 0.4
2015-May-14 16:11N 36°56' E 027°01'0 0.1
2015-May-14 15:25N 36°56' E 027°00'1311.9
2015-May-14 14:20N 36°56' E 027°17'2211.2
2015-May-14 12:23N 36°37' E 027°29'1113.6
2015-May-14 11:33N 36°32' E 027°42'25714.3
2015-May-13 17:33N 34°39' E 032°26'1414.2
2015-May-13 16:33N 34°35' E 032°42'1413.8
2015-May-13 15:33N 34°32' E 032°58'8 7.8
2015-May-13 14:34N 34°39' E 033°01'0 0.2
2015-May-13 13:31N 34°39' E 033°01'0 0.0
2015-May-13 12:31N 34°39' E 033°01'0 0.0
2015-May-13 11:31N 34°39' E 033°01'0 0.0
2015-May-13 10:31N 34°39' E 033°01'0 0.0
2015-May-13 07:31N 34°39' E 033°01'0 0.0
2015-May-13 06:31N 34°39' E 033°01'0 0.0
2015-May-13 05:31N 34°39' E 033°01'0 0.0
2015-May-13 04:31N 34°39' E 033°01'0 0.0
2015-May-13 03:31N 34°39' E 033°01'3 2.9
2015-May-13 02:32N 34°40' E 033°04'0 0.0
2015-May-13 01:32N 34°40' E 033°04'0 0.0
2015-May-13 00:32N 34°40' E 033°04'0 0.0
2015-May-12 23:32N 34°40' E 033°04'0 0.0
2015-May-12 22:32N 34°40' E 033°04'0 0.0
2015-May-12 21:32N 34°40' E 033°04'0 0.0
2015-May-12 20:32N 34°40' E 033°04'0 0.0
2015-May-12 19:32N 34°41' E 033°04'0 0.0
2015-May-12 18:32N 34°41' E 033°04'1 0.9
2015-May-12 17:33N 34°40' E 033°04'9 9.4
2015-May-12 16:33N 34°32' E 032°58'1212.1
2015-May-12 15:33N 34°34' E 032°44'1212.2
2015-May-12 14:33N 34°38' E 032°30'  

Dump ship's entire track history